createdAt,value
2017-08-29T22:33:04.778Z,48.44
2017-08-29T22:34:04.776Z,48.80
2017-08-29T22:35:57.721Z,49.07
2017-08-29T22:36:57.696Z,49.07
2017-08-29T22:38:50.640Z,49.66
2017-08-29T22:39:50.619Z,49.73
2017-08-29T22:41:43.573Z,49.83
2017-08-29T22:42:43.573Z,49.73
2017-08-29T22:44:37.208Z,49.44
2017-08-29T22:45:36.503Z,49.73
2017-08-29T22:47:29.430Z,49.63
2017-08-29T22:48:29.424Z,49.66
2017-08-29T22:50:22.644Z,49.85
2017-08-29T22:51:22.381Z,49.66
2017-08-29T22:53:15.790Z,49.15
2017-08-29T22:54:15.793Z,49.66
2017-08-29T22:56:08.744Z,49.54
2017-08-29T22:57:08.741Z,49.34
2017-08-29T22:59:01.707Z,49.15
2017-08-29T23:00:01.674Z,48.85
2017-08-29T23:01:54.602Z,48.56
2017-08-29T23:02:54.590Z,48.56
2017-08-29T23:04:48.041Z,48.95
2017-08-29T23:05:48.035Z,48.85
2017-08-29T23:07:41.235Z,48.75
2017-08-29T23:08:40.955Z,48.66
2017-08-29T23:10:33.899Z,48.46
2017-08-29T23:11:33.900Z,48.56
2017-08-29T23:13:26.818Z,48.66
2017-08-29T23:14:26.838Z,48.56
2017-08-29T23:16:19.752Z,48.36
2017-08-29T23:17:19.771Z,48.46
2017-08-29T23:19:12.979Z,48.36
2017-08-29T23:20:12.695Z,48.17
2017-08-29T23:22:06.121Z,47.98
2017-08-29T23:23:06.142Z,47.98
2017-08-29T23:24:59.333Z,48.07
2017-08-29T23:25:59.072Z,47.98
2017-08-29T23:27:52.014Z,47.78
2017-08-29T23:28:51.987Z,47.59
2017-08-29T23:30:44.941Z,47.69
2017-08-29T23:31:45.209Z,47.98
2017-08-29T23:33:38.088Z,47.88
2017-08-29T23:34:37.876Z,47.98
2017-08-29T23:36:31.299Z,47.78
2017-08-29T23:37:31.297Z,47.88
2017-08-29T23:39:24.212Z,47.88
2017-08-29T23:40:24.235Z,47.78
2017-08-29T23:42:17.700Z,47.98
2017-08-29T23:43:17.664Z,47.69
2017-08-29T23:45:11.088Z,47.98
2017-08-29T23:46:11.104Z,47.69
2017-08-29T23:48:04.553Z,47.78
2017-08-29T23:49:04.586Z,47.78
2017-08-29T23:50:58.007Z,47.98
2017-08-29T23:51:57.979Z,47.88
2017-08-29T23:53:51.446Z,47.88
2017-08-29T23:54:51.466Z,47.88
2017-08-29T23:56:44.392Z,47.88
2017-08-29T23:57:44.412Z,47.69
2017-08-29T23:59:37.342Z,47.59
